createdAt,value
2024-02-03T00:00:57.407Z,37.10
2024-02-03T00:01:57.136Z,37.11
2024-02-03T00:02:57.150Z,37.07
2024-02-03T00:03:57.200Z,37.08
2024-02-03T00:04:57.203Z,37.06
2024-02-03T00:05:57.212Z,37.04
2024-02-03T00:06:57.226Z,37.06
2024-02-03T00:07:57.154Z,37.02
2024-02-03T00:08:57.151Z,37.03
2024-02-03T00:09:57.192Z,37.03
2024-02-03T00:10:57.170Z,37.03
2024-02-03T00:11:57.168Z,37.04
2024-02-03T00:12:57.204Z,37.03
2024-02-03T00:13:57.152Z,37.02
2024-02-03T00:14:57.155Z,37.01
2024-02-03T00:15:58.121Z,37.00
2024-02-03T00:16:57.174Z,37.01
2024-02-03T00:17:57.226Z,36.99
2024-02-03T00:18:57.262Z,36.96
2024-02-03T00:19:57.294Z,36.98
2024-02-03T00:20:57.268Z,36.97
2024-02-03T00:21:57.168Z,36.96
2024-02-03T00:22:57.197Z,36.96
2024-02-03T00:23:57.191Z,36.98
2024-02-03T00:24:57.183Z,36.97
2024-02-03T00:25:57.192Z,36.95
2024-02-03T00:26:57.167Z,36.98
2024-02-03T00:27:57.216Z,36.99
2024-02-03T00:28:57.183Z,36.95
2024-02-03T00:29:57.182Z,36.95
2024-02-03T00:30:57.259Z,36.98
2024-02-03T00:31:57.254Z,36.95
2024-02-03T00:32:57.231Z,36.95
2024-02-03T00:33:57.290Z,36.93
2024-02-03T00:34:57.243Z,36.92
2024-02-03T00:35:57.202Z,36.93
2024-02-03T00:36:57.188Z,36.93
2024-02-03T00:37:57.200Z,36.93
2024-02-03T00:38:57.182Z,36.93
2024-02-03T00:39:57.182Z,36.92
2024-02-03T00:40:57.222Z,36.93
2024-02-03T00:41:57.276Z,36.92
2024-02-03T00:42:57.213Z,36.93
2024-02-03T00:43:57.223Z,36.91
2024-02-03T00:44:57.243Z,36.96
2024-02-03T00:45:57.272Z,36.90
2024-02-03T00:46:57.223Z,36.92
2024-02-03T00:47:57.269Z,36.91
2024-02-03T00:48:57.301Z,36.92
2024-02-03T00:49:57.242Z,36.91
2024-02-03T00:50:57.205Z,36.92
2024-02-03T00:51:57.246Z,36.92
2024-02-03T00:52:57.207Z,36.88
2024-02-03T00:53:57.223Z,36.89
2024-02-03T00:54:57.215Z,36.89
2024-02-03T00:55:57.214Z,36.88
2024-02-03T00:56:57.205Z,36.88
2024-02-03T00:57:57.294Z,36.88
2024-02-03T00:58:57.225Z,36.88
2024-02-03T00:59:57.250Z,36.87
2024-02-03T01:00:57.329Z,36.89
2024-02-03T01:01:57.248Z,36.86
2024-02-03T01:02:57.247Z,36.86
2024-02-03T01:03:57.292Z,36.86
2024-02-03T01:04:57.274Z,36.84
2024-02-03T01:05:57.303Z,36.85
2024-02-03T01:06:58.214Z,36.84
2024-02-03T01:07:57.317Z,36.88
2024-02-03T01:08:57.234Z,36.83
2024-02-03T01:09:57.313Z,36.84
2024-02-03T01:10:57.258Z,36.82
2024-02-03T01:11:57.301Z,36.80
2024-02-03T01:12:57.297Z,36.81
2024-02-03T01:13:57.325Z,36.81
2024-02-03T01:14:57.325Z,36.80
2024-02-03T01:15:57.328Z,36.77
2024-02-03T01:16:57.315Z,36.79
2024-02-03T01:17:57.348Z,36.77
2024-02-03T01:18:57.439Z,36.77
2024-02-03T01:19:57.381Z,36.80
2024-02-03T01:20:57.363Z,36.78
2024-02-03T01:21:57.389Z,36.77
2024-02-03T01:22:57.387Z,36.76
2024-02-03T01:23:57.401Z,36.76
2024-02-03T01:24:57.422Z,36.72
2024-02-03T01:25:57.423Z,36.70
2024-02-03T01:26:57.430Z,36.73
2024-02-03T01:27:57.466Z,36.74
2024-02-03T01:28:57.454Z,36.71
2024-02-03T01:29:57.464Z,36.68
2024-02-03T01:30:57.470Z,36.71
2024-02-03T01:31:57.474Z,36.71
2024-02-03T01:32:57.535Z,36.71
2024-02-03T01:33:57.594Z,36.70
2024-02-03T01:34:57.641Z,36.67
2024-02-03T01:35:57.535Z,36.70
2024-02-03T01:36:57.560Z,36.68
2024-02-03T01:37:57.562Z,36.70
2024-02-03T01:38:57.550Z,36.68
2024-02-03T01:39:57.594Z,36.65
2024-02-03T01:40:57.599Z,36.66
2024-02-03T01:41:57.649Z,36.65
2024-02-03T01:42:57.661Z,36.67
2024-02-03T01:43:57.645Z,36.67
2024-02-03T01:44:57.642Z,36.68
2024-02-03T01:45:57.717Z,36.66
2024-02-03T01:46:57.663Z,36.65
2024-02-03T01:47:57.696Z,36.63
2024-02-03T01:48:57.807Z,36.62
2024-02-03T01:49:57.767Z,36.63
2024-02-03T01:50:57.710Z,36.60
2024-02-03T01:51:57.716Z,36.63
2024-02-03T01:52:57.719Z,36.65
2024-02-03T01:53:57.743Z,36.63
2024-02-03T01:54:57.781Z,36.62
2024-02-03T01:55:57.754Z,36.63
2024-02-03T01:56:57.755Z,36.59
2024-02-03T01:57:57.801Z,36.63
2024-02-03T01:58:57.775Z,36.62
2024-02-03T01:59:57.841Z,36.62
2024-02-03T02:00:57.959Z,36.61
2024-02-03T02:01:57.855Z,36.62
2024-02-03T02:02:57.886Z,36.62
2024-02-03T02:03:57.993Z,36.60
2024-02-03T02:04:57.885Z,36.61
2024-02-03T02:05:57.939Z,36.61
2024-02-03T02:06:57.993Z,36.59
2024-02-03T02:07:57.907Z,36.57
2024-02-03T02:08:57.933Z,36.57
2024-02-03T02:09:57.935Z,36.57
2024-02-03T02:10:57.975Z,36.58
2024-02-03T02:11:57.999Z,36.54
2024-02-03T02:12:57.994Z,36.53
2024-02-03T02:13:58.031Z,36.51
2024-02-03T02:14:58.021Z,36.52
2024-02-03T02:15:58.155Z,36.54
2024-02-03T02:16:58.075Z,36.50
2024-02-03T02:17:58.096Z,36.52
2024-02-03T02:18:58.143Z,36.51
2024-02-03T02:19:58.148Z,36.48
2024-02-03T02:20:58.129Z,36.50
2024-02-03T02:21:58.141Z,36.50
2024-02-03T02:22:58.141Z,36.48
2024-02-03T02:23:58.185Z,36.47
2024-02-03T02:24:58.174Z,36.47
2024-02-03T02:25:58.181Z,36.48
2024-02-03T02:26:58.207Z,36.44
2024-02-03T02:27:58.230Z,36.46
2024-02-03T02:28:58.245Z,36.44
2024-02-03T02:29:58.245Z,36.46
2024-02-03T02:30:58.321Z,36.45
2024-02-03T02:31:58.272Z,36.44
2024-02-03T02:32:58.380Z,36.45
2024-02-03T02:33:58.428Z,36.45
2024-02-03T02:34:58.372Z,36.44
2024-02-03T02:35:58.335Z,36.45
2024-02-03T02:36:58.354Z,36.43
2024-02-03T02:37:58.356Z,36.45
2024-02-03T02:38:58.375Z,36.45
2024-02-03T02:39:58.478Z,36.44
2024-02-03T02:40:58.387Z,36.42
2024-02-03T02:41:58.440Z,36.40
2024-02-03T02:42:58.418Z,36.43
2024-02-03T02:43:58.453Z,36.43
2024-02-03T02:44:58.453Z,36.42
2024-02-03T02:45:58.525Z,36.39
2024-02-03T02:46:58.497Z,36.41
2024-02-03T02:47:58.645Z,36.44
2024-02-03T02:48:58.658Z,36.41
2024-02-03T02:49:58.704Z,36.43
2024-02-03T02:50:58.569Z,36.41
2024-02-03T02:51:58.613Z,36.39
2024-02-03T02:52:58.607Z,36.40
2024-02-03T02:53:58.629Z,36.40
2024-02-03T02:54:58.658Z,36.38
2024-02-03T02:56:00.331Z,36.39
2024-02-03T02:56:58.706Z,36.38
2024-02-03T02:57:58.689Z,36.39
2024-02-03T02:58:58.718Z,36.36
2024-02-03T02:59:58.741Z,36.35
2024-02-03T03:00:58.872Z,36.33
2024-02-03T03:01:58.765Z,36.39
2024-02-03T03:02:58.783Z,36.41
2024-02-03T03:03:58.886Z,36.40
2024-02-03T03:04:58.822Z,36.38
2024-02-03T03:05:58.877Z,36.37
2024-02-03T03:06:58.875Z,36.38
2024-02-03T03:07:58.918Z,36.39
2024-02-03T03:08:58.913Z,36.35
2024-02-03T03:09:58.938Z,36.34
2024-02-03T03:10:58.954Z,36.32
2024-02-03T03:11:58.954Z,36.31
2024-02-03T03:12:59.053Z,36.34
2024-02-03T03:13:58.990Z,36.31
2024-02-03T03:15:00.708Z,36.31
2024-02-03T03:15:59.018Z,36.32
2024-02-03T03:16:59.051Z,36.30
2024-02-03T03:17:59.109Z,36.31
2024-02-03T03:18:59.183Z,36.35
2024-02-03T03:19:59.247Z,36.32
2024-02-03T03:20:59.123Z,36.33
2024-02-03T03:21:59.169Z,36.28
2024-02-03T03:22:59.167Z,36.31
2024-02-03T03:23:59.247Z,36.30
2024-02-03T03:24:59.261Z,36.32
2024-02-03T03:25:59.258Z,36.28
2024-02-03T03:26:59.325Z,36.30
2024-02-03T03:27:59.299Z,36.34
2024-02-03T03:28:59.306Z,36.30
2024-02-03T03:29:59.334Z,36.31
2024-02-03T03:30:59.450Z,36.28
2024-02-03T03:31:59.380Z,36.28
2024-02-03T03:32:59.499Z,36.32
2024-02-03T03:33:59.496Z,36.30
2024-02-03T03:34:59.447Z,36.30
2024-02-03T03:35:59.485Z,36.28
2024-02-03T03:36:59.467Z,36.28
2024-02-03T03:37:59.496Z,36.26
2024-02-03T03:38:59.523Z,36.27
2024-02-03T03:39:59.556Z,36.31
2024-02-03T03:40:59.576Z,36.27
2024-02-03T03:41:59.567Z,36.24
2024-02-03T03:42:59.639Z,36.25
2024-02-03T03:43:59.644Z,36.28
2024-02-03T03:44:59.665Z,36.29
2024-02-03T03:45:59.718Z,36.28
2024-02-03T03:46:59.675Z,36.25
2024-02-03T03:47:59.814Z,36.25
2024-02-03T03:48:59.775Z,36.25
2024-02-03T03:49:59.841Z,36.27
2024-02-03T03:50:59.796Z,36.25
2024-02-03T03:51:59.793Z,36.27
2024-02-03T03:52:59.808Z,36.27
2024-02-03T03:53:59.822Z,36.25
2024-02-03T03:54:59.912Z,36.24
2024-02-03T03:55:59.898Z,36.26
2024-02-03T03:56:59.900Z,36.29
2024-02-03T03:57:59.932Z,36.26
2024-02-03T03:58:59.916Z,36.24
2024-02-03T03:59:59.967Z,36.23
2024-02-03T04:01:00.073Z,36.23
2024-02-03T04:01:59.984Z,36.25
2024-02-03T04:03:00.003Z,36.22
2024-02-03T04:04:00.080Z,36.22
2024-02-03T04:05:00.086Z,36.20
2024-02-03T04:06:00.131Z,36.21
2024-02-03T04:07:00.186Z,36.23
2024-02-03T04:08:00.124Z,36.22
2024-02-03T04:09:00.148Z,36.19
2024-02-03T04:10:00.197Z,36.17
2024-02-03T04:11:00.247Z,36.17
2024-02-03T04:12:00.246Z,36.15
2024-02-03T04:13:00.246Z,36.16
2024-02-03T04:14:00.250Z,36.17
2024-02-03T04:15:00.325Z,36.16
2024-02-03T04:16:01.197Z,36.16
2024-02-03T04:17:00.388Z,36.16
2024-02-03T04:18:00.396Z,36.20
2024-02-03T04:19:00.569Z,36.17
2024-02-03T04:20:00.729Z,36.15
2024-02-03T04:21:00.453Z,36.14
2024-02-03T04:22:00.521Z,36.16
2024-02-03T04:23:49.111Z,36.20
2024-02-03T04:24:49.190Z,36.16
2024-02-03T04:25:49.122Z,36.15
2024-02-03T04:26:49.122Z,36.19
2024-02-03T04:27:49.250Z,36.15
2024-02-03T04:28:49.157Z,36.13
2024-02-03T04:29:49.264Z,36.14
2024-02-03T04:30:49.189Z,36.13
2024-02-03T04:31:56.392Z,36.19
2024-02-03T04:32:56.508Z,36.16
2024-02-03T04:33:56.522Z,36.13
2024-02-03T04:34:56.428Z,36.12
2024-02-03T04:35:56.390Z,36.14
2024-02-03T04:36:56.442Z,36.13
2024-02-03T04:37:56.403Z,36.08
2024-02-03T04:38:56.391Z,36.09
2024-02-03T04:39:56.443Z,36.11
2024-02-03T04:40:56.408Z,36.12
2024-02-03T04:41:56.405Z,36.13
2024-02-03T04:42:56.398Z,36.08
2024-02-03T04:43:56.416Z,36.10
2024-02-03T04:44:56.405Z,36.10
2024-02-03T04:45:56.579Z,36.12
2024-02-03T04:46:56.431Z,36.07
2024-02-03T04:47:56.459Z,36.07
2024-02-03T04:48:56.568Z,36.07
2024-02-03T04:49:56.470Z,36.08
2024-02-03T04:50:56.423Z,36.11
2024-02-03T04:51:56.500Z,36.10
2024-02-03T04:52:56.398Z,36.11
2024-02-03T04:53:56.409Z,36.12
2024-02-03T04:54:56.511Z,36.10
2024-02-03T04:55:56.395Z,36.10
2024-02-03T04:56:56.407Z,36.07
2024-02-03T04:57:56.464Z,36.04
2024-02-03T04:58:56.393Z,36.07
2024-02-03T04:59:56.443Z,36.09
2024-02-03T05:00:56.797Z,36.07
2024-02-03T05:01:56.560Z,36.06
2024-02-03T05:02:56.426Z,36.05
2024-02-03T05:03:56.517Z,36.05
2024-02-03T05:04:56.558Z,36.05
2024-02-03T05:05:56.425Z,36.05
2024-02-03T05:06:56.615Z,36.03
2024-02-03T05:07:56.421Z,36.03
2024-02-03T05:08:56.393Z,35.99
2024-02-03T05:09:56.430Z,36.01
2024-02-03T05:10:56.443Z,36.02
2024-02-03T05:11:56.430Z,36.02
2024-02-03T05:12:56.438Z,36.03
2024-02-03T05:13:56.431Z,36.04
2024-02-03T05:14:56.419Z,36.01
2024-02-03T05:15:56.451Z,36.01
2024-02-03T05:16:56.436Z,36.00
2024-02-03T05:17:56.515Z,35.98
2024-02-03T05:18:56.595Z,35.96
2024-02-03T05:19:56.428Z,35.95
2024-02-03T05:20:56.397Z,35.95
2024-02-03T05:21:56.531Z,35.96
2024-02-03T05:22:56.419Z,35.97
2024-02-03T05:23:56.996Z,35.96
2024-02-03T05:24:56.481Z,35.98
2024-02-03T05:25:56.444Z,35.95
2024-02-03T05:26:56.435Z,35.93
2024-02-03T05:27:56.470Z,35.97
2024-02-03T05:28:56.424Z,35.98
2024-02-03T05:29:56.444Z,35.96
2024-02-03T05:30:56.420Z,35.94
2024-02-03T05:31:56.461Z,35.94
2024-02-03T05:32:56.468Z,35.95
2024-02-03T05:33:56.512Z,35.94
2024-02-03T05:34:56.496Z,35.92
2024-02-03T05:35:56.440Z,35.92
2024-02-03T05:36:56.490Z,35.90
2024-02-03T05:37:56.416Z,35.90
2024-02-03T05:38:56.457Z,35.90
2024-02-03T05:39:56.532Z,35.93
2024-02-03T05:40:56.461Z,35.92
2024-02-03T05:41:56.407Z,35.92
2024-02-03T05:42:56.534Z,35.91
2024-02-03T05:43:56.441Z,35.92
2024-02-03T05:44:56.470Z,35.90
2024-02-03T05:45:56.524Z,35.90
2024-02-03T05:46:56.515Z,35.89
2024-02-03T05:47:56.621Z,35.89
2024-02-03T05:48:56.631Z,35.88
2024-02-03T05:49:56.607Z,35.87
2024-02-03T05:50:56.610Z,35.83
2024-02-03T05:51:56.725Z,35.86
2024-02-03T05:52:56.676Z,35.87
2024-02-03T05:53:56.692Z,35.85
2024-02-03T05:54:56.798Z,35.88
2024-02-03T05:55:56.744Z,35.87
2024-02-03T05:56:56.726Z,35.86
2024-02-03T05:57:56.823Z,35.85
2024-02-03T05:59:08.040Z,35.85
2024-02-03T05:59:57.802Z,35.84
2024-02-03T06:00:56.864Z,35.82
2024-02-03T06:01:58.494Z,35.84
2024-02-03T06:02:56.810Z,35.82
2024-02-03T06:03:56.878Z,35.83
2024-02-03T06:04:56.906Z,35.82
2024-02-03T06:06:13.402Z,35.81
2024-02-03T06:06:57.882Z,35.83
2024-02-03T06:07:56.972Z,35.86
2024-02-03T06:08:56.818Z,35.84
2024-02-03T06:09:56.916Z,35.83
2024-02-03T06:10:56.873Z,35.81
2024-02-03T06:11:56.839Z,35.83
2024-02-03T06:12:56.948Z,35.82
2024-02-03T06:13:56.822Z,35.78
2024-02-03T06:14:56.850Z,35.80
2024-02-03T06:15:56.876Z,35.81
2024-02-03T06:16:56.823Z,35.81
2024-02-03T06:17:56.868Z,35.79
2024-02-03T06:18:56.925Z,35.82
2024-02-03T06:19:56.982Z,35.79
2024-02-03T06:20:56.826Z,35.79
2024-02-03T06:21:56.896Z,35.82
2024-02-03T06:22:56.832Z,35.84
2024-02-03T06:23:56.830Z,35.80
2024-02-03T06:24:56.955Z,35.79
2024-02-03T06:25:56.845Z,35.79
2024-02-03T06:26:56.859Z,35.78
2024-02-03T06:27:56.852Z,35.78
2024-02-03T06:28:56.935Z,35.76
2024-02-03T06:29:56.893Z,35.76
2024-02-03T06:30:56.949Z,35.77
2024-02-03T06:31:56.966Z,35.76
2024-02-03T06:32:57.061Z,35.77
2024-02-03T06:33:57.130Z,35.75
2024-02-03T06:34:57.284Z,35.74
2024-02-03T06:35:57.037Z,35.76
2024-02-03T06:36:57.113Z,35.75
2024-02-03T06:37:57.072Z,35.74
2024-02-03T06:38:57.081Z,35.76
2024-02-03T06:39:57.194Z,35.75
2024-02-03T06:40:57.170Z,35.71
2024-02-03T06:41:57.200Z,35.73
2024-02-03T06:42:57.257Z,35.77
2024-02-03T06:43:57.226Z,35.76
2024-02-03T06:44:57.312Z,35.72
2024-02-03T06:45:57.353Z,35.71
2024-02-03T06:46:57.305Z,35.73
2024-02-03T06:47:57.458Z,35.73
2024-02-03T06:48:57.490Z,35.72
2024-02-03T06:49:57.507Z,35.72
2024-02-03T06:50:57.438Z,35.71
2024-02-03T06:51:57.483Z,35.71
2024-02-03T06:52:57.460Z,35.70
2024-02-03T06:53:57.501Z,35.70
2024-02-03T06:54:57.647Z,35.69
2024-02-03T06:55:57.551Z,35.70
2024-02-03T06:56:57.586Z,35.69
2024-02-03T06:57:57.630Z,35.71
2024-02-03T06:58:57.647Z,35.70
2024-02-03T06:59:57.691Z,35.69
2024-02-03T07:00:58.514Z,35.69
2024-02-03T07:01:57.763Z,35.64
2024-02-03T07:02:57.774Z,35.65
2024-02-03T07:03:57.915Z,35.67
2024-02-03T07:04:57.871Z,35.68
2024-02-03T07:05:57.910Z,35.69
2024-02-03T07:06:57.935Z,35.69
2024-02-03T07:07:57.935Z,35.65
2024-02-03T07:08:57.955Z,35.65
2024-02-03T07:09:58.008Z,35.64
2024-02-03T07:10:58.021Z,35.64
2024-02-03T07:12:06.877Z,35.62
2024-02-03T07:12:59.131Z,35.63
2024-02-03T07:13:58.056Z,35.62
2024-02-03T07:14:58.093Z,35.63
2024-02-03T07:15:58.147Z,35.61
2024-02-03T07:16:58.107Z,35.62
2024-02-03T07:17:58.091Z,35.59
2024-02-03T07:18:58.086Z,35.61
2024-02-03T07:19:58.143Z,35.60
2024-02-03T07:20:58.034Z,35.60
2024-02-03T07:21:58.126Z,35.58
2024-02-03T07:22:58.079Z,35.56
2024-02-03T07:23:58.047Z,35.58
2024-02-03T07:24:58.139Z,35.56
2024-02-03T07:25:58.061Z,35.58
2024-02-03T07:26:58.046Z,35.57
2024-02-03T07:27:58.054Z,35.57
2024-02-03T07:28:58.055Z,35.59
2024-02-03T07:29:58.073Z,35.60
2024-02-03T07:30:58.180Z,35.58
2024-02-03T07:31:58.121Z,35.52
2024-02-03T07:32:58.205Z,35.53
2024-02-03T07:33:58.291Z,35.55
2024-02-03T07:34:58.385Z,35.56
2024-02-03T07:35:58.243Z,35.54
2024-02-03T07:36:58.413Z,35.53
2024-02-03T07:37:58.345Z,35.53
2024-02-03T07:38:58.350Z,35.51
2024-02-03T07:39:58.484Z,35.52
2024-02-03T07:40:58.431Z,35.51
2024-02-03T07:41:58.444Z,35.53
2024-02-03T07:42:58.545Z,35.54
2024-02-03T07:43:58.530Z,35.55
2024-02-03T07:44:58.579Z,35.52
2024-02-03T07:45:58.641Z,35.53
2024-02-03T07:46:58.607Z,35.49
2024-02-03T07:47:58.762Z,35.46
2024-02-03T07:48:58.785Z,35.46
2024-02-03T07:49:58.853Z,35.45
2024-02-03T07:50:58.727Z,35.44
2024-02-03T07:52:02.510Z,35.44
2024-02-03T07:52:58.767Z,35.46
2024-02-03T07:53:58.802Z,35.46
2024-02-03T07:54:58.848Z,35.46
2024-02-03T07:55:58.789Z,35.47
2024-02-03T07:56:58.757Z,35.48
2024-02-03T07:57:58.868Z,35.44
2024-02-03T07:58:58.772Z,35.42
2024-02-03T07:59:58.785Z,35.41
2024-02-03T08:00:58.879Z,35.41
2024-02-03T08:01:58.795Z,35.42
2024-02-03T08:02:58.809Z,35.39
2024-02-03T08:03:58.855Z,35.41
2024-02-03T08:04:58.838Z,35.39
2024-02-03T08:05:58.889Z,35.39
2024-02-03T08:07:00.708Z,35.38
2024-02-03T08:07:58.810Z,35.39
2024-02-03T08:08:58.883Z,35.41
2024-02-03T08:09:58.937Z,35.39
2024-02-03T08:10:58.761Z,35.38
2024-02-03T08:11:58.763Z,35.39
2024-02-03T08:12:58.889Z,35.38
2024-02-03T08:13:58.781Z,35.35
2024-02-03T08:14:58.815Z,35.34
2024-02-03T08:15:58.834Z,35.30
2024-02-03T08:16:58.808Z,35.35
2024-02-03T08:17:58.844Z,35.33
2024-02-03T08:18:58.803Z,35.33
2024-02-03T08:19:58.829Z,35.32
2024-02-03T08:20:58.792Z,35.32
2024-02-03T08:21:58.863Z,35.30
2024-02-03T08:22:58.807Z,35.32
2024-02-03T08:23:58.789Z,35.34
2024-02-03T08:24:58.892Z,35.31
2024-02-03T08:25:58.802Z,35.32
2024-02-03T08:26:58.861Z,35.29
2024-02-03T08:27:58.869Z,35.28
2024-02-03T08:28:58.809Z,35.31
2024-02-03T08:29:58.829Z,35.25
2024-02-03T08:30:58.848Z,35.24
2024-02-03T08:31:58.797Z,35.25
2024-02-03T08:32:58.872Z,35.27
2024-02-03T08:33:58.999Z,35.28
2024-02-03T08:35:58.852Z,35.30
2024-02-03T08:36:58.880Z,35.27
2024-02-03T08:37:58.820Z,35.26
2024-02-03T08:38:58.823Z,35.26
2024-02-03T08:39:58.854Z,35.27
2024-02-03T08:40:58.815Z,35.27
2024-02-03T08:41:58.804Z,35.31
2024-02-03T08:42:58.822Z,35.31
2024-02-03T08:43:58.832Z,35.29
2024-02-03T08:44:58.811Z,35.28
2024-02-03T08:45:58.852Z,35.28
2024-02-03T08:46:58.849Z,35.28
2024-02-03T08:47:58.936Z,35.26
2024-02-03T08:48:58.992Z,35.29
2024-02-03T08:49:58.826Z,35.28
2024-02-03T08:50:58.842Z,35.27
2024-02-03T08:51:58.871Z,35.29
2024-02-03T08:52:58.817Z,35.30
2024-02-03T08:53:58.825Z,35.29
2024-02-03T08:54:58.837Z,35.28
2024-02-03T08:55:58.836Z,35.30
2024-02-03T08:56:58.841Z,35.29
2024-02-03T08:57:58.849Z,35.28
2024-02-03T08:58:58.877Z,35.31
2024-02-03T08:59:58.843Z,35.29
2024-02-03T09:00:58.931Z,35.25
2024-02-03T09:01:58.851Z,35.23
2024-02-03T09:02:58.867Z,35.25
2024-02-03T09:03:58.911Z,35.25
2024-02-03T09:04:58.877Z,35.24
2024-02-03T09:05:58.931Z,35.25
2024-02-03T09:06:58.888Z,35.26
2024-02-03T09:07:58.862Z,35.27
2024-02-03T09:08:58.863Z,35.26
2024-02-03T09:10:00.680Z,35.24
2024-02-03T09:10:58.913Z,35.25
2024-02-03T09:11:58.896Z,35.28
2024-02-03T09:12:59.003Z,35.27
2024-02-03T09:13:58.953Z,35.25
2024-02-03T09:14:58.979Z,35.26
2024-02-03T09:15:59.037Z,35.28
2024-02-03T09:16:59.020Z,35.25
2024-02-03T09:17:59.119Z,35.25
2024-02-03T09:18:59.113Z,35.26
2024-02-03T09:19:59.230Z,35.25
2024-02-03T09:20:59.053Z,35.24
2024-02-03T09:21:59.134Z,35.26
2024-02-03T09:22:59.097Z,35.25
2024-02-03T09:23:59.113Z,35.28
2024-02-03T09:24:59.115Z,35.25
2024-02-03T09:25:59.132Z,35.26
2024-02-03T09:26:59.143Z,35.26
2024-02-03T09:27:59.175Z,35.26
2024-02-03T09:28:59.187Z,35.26
2024-02-03T09:29:59.223Z,35.27
2024-02-03T09:30:59.208Z,35.23
2024-02-03T09:31:59.293Z,35.25
2024-02-03T09:32:59.310Z,35.25
2024-02-03T09:33:59.406Z,35.27
2024-02-03T09:34:59.259Z,35.25
2024-02-03T09:35:59.288Z,35.25
2024-02-03T09:38:00.068Z,35.27
2024-02-03T09:38:59.277Z,35.27
2024-02-03T09:39:59.349Z,35.25
2024-02-03T09:40:59.322Z,35.23
2024-02-03T09:41:59.289Z,35.25
2024-02-03T09:42:59.333Z,35.23
2024-02-03T09:43:59.315Z,35.25
2024-02-03T09:44:59.313Z,35.27
2024-02-03T09:45:59.313Z,35.23
2024-02-03T09:46:59.279Z,35.26
2024-02-03T09:47:59.413Z,35.23
2024-02-03T09:48:59.339Z,35.24
2024-02-03T09:49:59.317Z,35.26
2024-02-03T09:50:59.304Z,35.25
2024-02-03T09:51:59.314Z,35.25
2024-02-03T09:52:59.318Z,35.23
2024-02-03T09:53:59.305Z,35.25
2024-02-03T09:54:59.334Z,35.26
2024-02-03T09:55:59.306Z,35.23
2024-02-03T09:56:59.336Z,35.23
2024-02-03T09:57:59.357Z,35.24
2024-02-03T09:58:59.328Z,35.25
2024-02-03T09:59:59.387Z,35.26
2024-02-03T10:00:59.389Z,35.24
2024-02-03T10:01:59.300Z,35.24
2024-02-03T10:02:59.307Z,35.24
2024-02-03T10:03:59.477Z,35.23
2024-02-03T10:04:59.452Z,35.23
2024-02-03T10:05:59.359Z,35.20
2024-02-03T10:06:59.350Z,35.18
2024-02-03T10:07:59.334Z,35.21
2024-02-03T10:08:59.329Z,35.20
2024-02-03T10:10:59.416Z,35.22
2024-02-03T10:11:59.399Z,35.22
2024-02-03T10:13:00.130Z,35.20
2024-02-03T10:13:59.338Z,35.23
2024-02-03T10:14:59.365Z,35.23
2024-02-03T10:15:59.445Z,35.17
2024-02-03T10:16:59.343Z,35.17
2024-02-03T10:17:59.379Z,35.18
2024-02-03T10:18:59.401Z,35.21
2024-02-03T10:19:59.454Z,35.22
2024-02-03T10:20:59.327Z,35.20
2024-02-03T10:21:59.414Z,35.17
2024-02-03T10:22:59.386Z,35.17
2024-02-03T10:23:59.309Z,35.19
2024-02-03T10:24:59.449Z,35.18
2024-02-03T10:25:59.332Z,35.18
2024-02-03T10:26:59.359Z,35.19
2024-02-03T10:27:59.397Z,35.18
2024-02-03T10:28:59.388Z,35.18
2024-02-03T10:29:59.324Z,35.14
2024-02-03T10:31:01.848Z,35.15
2024-02-03T10:31:59.323Z,35.18
2024-02-03T10:32:59.384Z,35.18
2024-02-03T10:33:59.409Z,35.16
2024-02-03T10:34:59.457Z,35.16
2024-02-03T10:35:59.328Z,35.16
2024-02-03T10:36:59.390Z,35.18
2024-02-03T10:37:59.369Z,35.17
2024-02-03T10:38:59.358Z,35.19
2024-02-03T10:39:59.420Z,35.18
2024-02-03T10:40:59.342Z,35.20
2024-02-03T10:41:59.343Z,35.17
2024-02-03T10:43:02.280Z,35.15
2024-02-03T10:43:59.359Z,35.20
2024-02-03T10:44:59.351Z,35.20
2024-02-03T10:45:59.463Z,35.16
2024-02-03T10:46:59.386Z,35.17
2024-02-03T10:47:59.631Z,35.17
2024-02-03T10:48:59.459Z,35.14
2024-02-03T10:49:59.462Z,35.15
2024-02-03T10:50:59.373Z,35.13
2024-02-03T10:51:59.331Z,35.13
2024-02-03T10:52:59.368Z,35.14
2024-02-03T10:53:59.340Z,35.15
2024-02-03T10:54:59.398Z,35.14
2024-02-03T10:55:59.364Z,35.17
2024-02-03T10:56:59.349Z,35.17
2024-02-03T10:57:59.353Z,35.13
2024-02-03T10:59:00.831Z,35.14
2024-02-03T10:59:59.352Z,35.15
2024-02-03T11:00:59.419Z,35.18
2024-02-03T11:01:59.371Z,35.17
2024-02-03T11:02:59.440Z,35.15
2024-02-03T11:03:59.441Z,35.17
2024-02-03T11:05:01.940Z,35.16
2024-02-03T11:05:59.420Z,35.17
2024-02-03T11:06:59.439Z,35.18
2024-02-03T11:07:59.345Z,35.15
2024-02-03T11:08:59.389Z,35.16
2024-02-03T11:09:59.401Z,35.13
2024-02-03T11:10:59.359Z,35.13
2024-02-03T11:11:59.370Z,35.14
2024-02-03T11:12:59.377Z,35.13
2024-02-03T11:13:59.422Z,35.13
2024-02-03T11:14:59.353Z,35.15
2024-02-03T11:15:59.802Z,35.15
2024-02-03T11:17:02.382Z,35.16
2024-02-03T11:17:59.440Z,35.17
2024-02-03T11:18:59.522Z,35.15
2024-02-03T11:19:59.550Z,35.17
2024-02-03T11:20:59.369Z,35.13
2024-02-03T11:21:59.358Z,35.14
2024-02-03T11:23:00.821Z,35.12
2024-02-03T11:24:00.419Z,35.14
2024-02-03T11:24:59.420Z,35.13
2024-02-03T11:25:59.376Z,35.15
2024-02-03T11:26:59.396Z,35.14
2024-02-03T11:27:59.418Z,35.14
2024-02-03T11:29:00.611Z,35.14
2024-02-03T11:29:59.401Z,35.17
2024-02-03T11:30:59.408Z,35.16
2024-02-03T11:31:59.373Z,35.14
2024-02-03T11:32:59.508Z,35.15
2024-02-03T11:33:59.528Z,35.14
2024-02-03T11:35:00.941Z,35.15
2024-02-03T11:35:59.395Z,35.13
2024-02-03T11:36:59.441Z,35.09
2024-02-03T11:37:59.386Z,35.12
2024-02-03T11:38:59.398Z,35.13
2024-02-03T11:39:59.388Z,35.13
2024-02-03T11:41:01.020Z,35.13
2024-02-03T11:41:59.378Z,35.11
2024-02-03T11:42:59.407Z,35.15
2024-02-03T11:43:59.405Z,35.16
2024-02-03T11:44:59.412Z,35.14
2024-02-03T11:45:59.442Z,35.10
2024-02-03T11:47:00.145Z,35.09
2024-02-03T11:47:59.436Z,35.09
2024-02-03T11:48:59.509Z,35.08
2024-02-03T11:49:59.563Z,35.10
2024-02-03T11:50:59.421Z,35.08
2024-02-03T11:51:59.418Z,35.08
2024-02-03T11:52:59.406Z,35.06
2024-02-03T11:53:59.386Z,35.08
2024-02-03T11:54:59.437Z,35.05
2024-02-03T11:55:59.434Z,35.09
2024-02-03T11:56:59.401Z,35.10
2024-02-03T11:57:59.429Z,35.08
2024-02-03T11:58:59.394Z,35.07
2024-02-03T11:59:59.391Z,35.12
2024-02-03T12:00:59.531Z,35.05
2024-02-03T12:01:59.422Z,35.03
2024-02-03T12:02:59.397Z,35.05
2024-02-03T12:03:59.530Z,35.07
2024-02-03T12:04:59.462Z,35.07
2024-02-03T12:05:59.436Z,35.07
2024-02-03T12:06:59.554Z,35.07
2024-02-03T12:07:59.442Z,35.04
2024-02-03T12:08:59.442Z,35.03
2024-02-03T12:09:59.531Z,34.99
2024-02-03T12:10:59.483Z,34.99
2024-02-03T12:11:59.458Z,34.97
2024-02-03T12:12:59.584Z,34.93
2024-02-03T12:13:59.457Z,34.91
2024-02-03T12:14:59.472Z,34.89
2024-02-03T12:15:59.634Z,34.86
2024-02-03T12:16:59.457Z,34.91
2024-02-03T12:17:59.542Z,34.90
2024-02-03T12:18:59.514Z,34.92
2024-02-03T12:19:59.509Z,34.91
2024-02-03T12:20:59.531Z,34.89
2024-02-03T12:21:59.741Z,34.81
2024-02-03T12:22:59.632Z,34.84
2024-02-03T12:23:59.706Z,34.85
2024-02-03T12:24:59.781Z,34.88
2024-02-03T12:25:59.939Z,34.89
2024-02-03T12:26:59.894Z,34.86
2024-02-03T12:28:00.046Z,34.87
2024-02-03T12:29:00.074Z,34.86
2024-02-03T12:30:00.162Z,34.84
2024-02-03T12:31:00.343Z,34.85
2024-02-03T12:32:00.225Z,34.85
2024-02-03T12:33:00.515Z,34.85
2024-02-03T12:34:00.425Z,34.86
2024-02-03T12:35:00.592Z,34.85
2024-02-03T12:36:00.522Z,34.83
2024-02-03T12:37:00.732Z,34.85
2024-02-03T12:38:00.648Z,34.82
2024-02-03T12:39:00.810Z,34.81
2024-02-03T12:40:00.955Z,34.82
2024-02-03T12:41:00.871Z,34.80
2024-02-03T12:42:01.002Z,34.80
2024-02-03T12:43:00.984Z,34.76
2024-02-03T12:44:01.035Z,34.78
2024-02-03T12:45:01.100Z,34.76
2024-02-03T12:46:01.287Z,34.72
2024-02-03T12:47:01.232Z,34.71
2024-02-03T12:48:01.383Z,34.67
2024-02-03T12:49:01.463Z,34.65
2024-02-03T12:50:01.603Z,34.65
2024-02-03T12:51:01.489Z,34.63
2024-02-03T12:52:01.503Z,34.60
2024-02-03T12:53:01.579Z,34.58
2024-02-03T12:54:01.656Z,34.55
2024-02-03T12:55:01.732Z,34.54
2024-02-03T12:56:01.881Z,34.51
2024-02-03T12:57:01.863Z,34.47